Airfield :
LOGIN :

Register | Disclaimer

   EN    FR    IT 

 










Legend :    VFR   Marginal VFR   IFR   Intensive IFR   Very Intensive IFR
Visi :
Ceiling :
>= 8 km
>= 3000ft
5 to 8 km
1000 to 3000 ft
1500m to 5 km
500 to 1000 ft
800 to 1500m
200 to 500 ft
< 800m
< 200 ft
Symbols :   Thunderstorms  Fog  Heavy snow  Heavy precipitations  Wind > 20 kt
SIGMETs :     Misc.  Thunderstorms  Icing  Turbulence  Mountain Waves  Volcanic Ashes







- Airport Elevation : 1400 ft


LSME - Luzern Emmen

CURRENT METAR :
  • 181520Z AUTO VRB02KT 9999NDV NCD 26/16 Q1018 RMK

EXPIRED METARs :
  • 181450Z VRB02KT CAVOK 26/15 Q1018 RMK BLU
  • 181350Z VRB02KT CAVOK 25/14 Q1018 RMK BLU
  • 181320Z 23003KT 150V300 CAVOK 24/14 Q1019 RMK BLU
  • 181250Z 21005KT 160V240 9999 FEW090 23/15 Q1019 RMK BLU+
  • 181220Z 22004KT 140V250 9999 FEW080 23/15 Q1019 RMK BLU+

Expired Forecast.
No reported NOTAMs for that airfield.



MET'MAP, your aeronautical weather chart ! - Copyright ORBIFLY December 2007 - Disclaimer

ORBIFLY MET'MAP TEAM :

Programming & Development : Alexandra Zaïnal
Concept & Development : Baudouin d'Aumeries
Co-Development & Prog : Marc-Olivier Méhu
Technical & hardware support : Manuel Goepfert

Contact : metmap@orbifly.com




SOURCES & CREDITS :

   NOAA